Time;durP1;ratioP1;P1;durP2;ratioP2;P2;SDS_P1;SDS_P2;PMS_P1;PMS_P2;Temp;Humidity;BMP_temperature;BMP_pressure;BME280_temperature;BME280_humidity;BME280_pressure;Samples;Min_cycle;Max_cycle;Signal;HPM_P1;HPM_P2
2022/04/21 00:00:14;;;;;;;1.00;1.00;;;19.20;29.90;;;;;;5150039;27;47315;-19
2022/04/21 00:02:41;;;;;;;1.13;1.00;;;19.10;29.90;;;;;;5149640;27;47817;-19
2022/04/21 00:05:09;;;;;;;1.17;1.17;;;19.10;29.90;;;;;;5149713;27;46901;-20
2022/04/21 00:07:35;;;;;;;2.05;0.93;;;19.10;30.00;;;;;;5149439;27;47111;-19
2022/04/21 00:10:02;;;;;;;0.93;0.93;;;19.10;30.00;;;;;;5150158;27;46858;-19
2022/04/21 00:12:29;;;;;;;1.10;1.10;;;19.10;30.00;;;;;;5149784;27;48932;-17
2022/04/21 00:14:56;;;;;;;1.27;1.10;;;19.00;30.00;;;;;;5149897;27;47424;-19
2022/04/21 00:17:24;;;;;;;1.20;1.17;;;19.00;30.00;;;;;;5149677;27;46734;-18
2022/04/21 00:19:50;;;;;;;1.73;1.10;;;19.00;30.00;;;;;;5150007;27;46910;-19
2022/04/21 00:25:02;;;;;;;1.23;1.00;;;18.90;30.00;;;;;;5146845;27;46791;-19
2022/04/21 00:27:29;;;;;;;1.10;1.10;;;18.90;30.00;;;;;;5149337;27;46989;-19
2022/04/21 00:29:56;;;;;;;0.85;0.85;;;18.90;30.10;;;;;;5149410;27;46902;-19
2022/04/21 00:32:24;;;;;;;1.48;1.15;;;18.90;30.10;;;;;;5149078;27;48191;-17
2022/04/21 00:34:51;;;;;;;1.10;1.00;;;18.90;30.10;;;;;;5149444;27;46888;-18
2022/04/21 00:37:18;;;;;;;1.08;1.08;;;18.90;30.10;;;;;;5149359;27;46910;-17
2022/04/21 00:39:45;;;;;;;2.28;1.10;;;18.80;30.10;;;;;;5149516;27;47490;-17
2022/04/21 00:42:11;;;;;;;1.10;1.10;;;18.80;30.10;;;;;;5148964;27;49168;-19
2022/04/21 00:44:38;;;;;;;1.23;1.23;;;18.80;30.20;;;;;;5149351;27;46788;-18
2022/04/21 00:47:06;;;;;;;1.88;1.08;;;18.80;30.20;;;;;;5149118;27;46873;-19
2022/04/21 00:49:34;;;;;;;1.13;1.05;;;18.70;30.20;;;;;;5149262;27;47284;-17
2022/04/21 00:52:01;;;;;;;1.10;1.10;;;18.70;30.20;;;;;;5148720;27;48421;-19
2022/04/21 00:54:30;;;;;;;1.23;1.15;;;18.70;30.30;;;;;;5148964;27;47444;-17
2022/04/21 00:56:56;;;;;;;0.90;0.90;;;18.70;30.30;;;;;;5148912;27;47061;-18
2022/04/21 00:59:23;;;;;;;1.20;1.10;;;18.70;30.30;;;;;;5149329;27;46944;-17
2022/04/21 01:04:35;;;;;;;1.00;1.00;;;18.60;30.30;;;;;;5146198;27;46876;-19
2022/04/21 01:07:02;;;;;;;1.10;1.00;;;18.60;30.40;;;;;;5148905;27;46918;-17
2022/04/21 01:09:29;;;;;;;1.30;1.02;;;18.60;30.40;;;;;;5149039;27;47284;-19
2022/04/21 01:11:55;;;;;;;1.00;0.98;;;18.60;30.40;;;;;;5148566;27;48895;-19
2022/04/21 01:14:22;;;;;;;1.13;1.10;;;18.50;30.50;;;;;;5149134;27;46804;-18
2022/04/21 01:16:49;;;;;;;1.20;1.10;;;18.50;30.50;;;;;;5148685;27;46946;-18
2022/04/21 01:19:15;;;;;;;1.48;1.05;;;18.40;30.50;;;;;;5149106;27;47031;-17
2022/04/21 01:21:44;;;;;;;0.80;0.80;;;18.50;30.60;;;;;;5148335;27;48149;-19
2022/04/21 01:24:10;;;;;;;1.20;0.93;;;18.40;30.60;;;;;;5148718;27;46753;-17
2022/04/21 01:26:37;;;;;;;1.40;1.17;;;18.40;30.60;;;;;;5148679;27;46985;-18
2022/04/21 01:29:05;;;;;;;0.90;0.90;;;18.40;30.50;;;;;;5148866;27;47113;-18
2022/04/21 01:31:31;;;;;;;1.05;1.00;;;18.40;30.60;;;;;;5148488;27;49080;-20
2022/04/21 01:33:58;;;;;;;1.00;1.00;;;18.40;30.60;;;;;;5148519;27;46814;-18
2022/04/21 01:36:25;;;;;;;1.33;1.23;;;18.30;30.60;;;;;;5148064;27;46914;-19
2022/04/21 01:41:43;;;;;;;1.30;1.20;;;18.30;30.70;;;;;;5087070;27;47632;-19
2022/04/21 01:44:10;;;;;;;1.15;1.10;;;18.30;30.70;;;;;;5148109;27;46773;-19
2022/04/21 01:46:36;;;;;;;1.10;1.00;;;18.20;30.70;;;;;;5148450;27;47090;-19
2022/04/21 01:49:03;;;;;;;1.20;1.10;;;18.20;30.70;;;;;;5148515;27;46961;-18
2022/04/21 01:51:30;;;;;;;1.30;1.20;;;18.20;30.70;;;;;;5147838;27;47913;-18
2022/04/21 01:53:58;;;;;;;1.13;1.10;;;18.10;30.70;;;;;;5148144;27;47002;-18
2022/04/21 01:56:24;;;;;;;1.08;1.08;;;18.10;30.70;;;;;;5147756;27;46973;-19
2022/04/21 01:58:51;;;;;;;1.00;0.90;;;18.10;30.80;;;;;;5148494;27;46886;-19
2022/04/21 02:01:18;;;;;;;1.00;1.00;;;18.10;30.80;;;;;;5147967;27;48338;-19
2022/04/21 02:03:44;;;;;;;1.10;1.00;;;18.10;30.90;;;;;;5148219;27;47297;-19
2022/04/21 02:06:13;;;;;;;1.27;1.17;;;18.10;30.90;;;;;;5147998;27;46879;-17
2022/04/21 02:08:40;;;;;;;1.15;0.90;;;18.00;30.80;;;;;;5148495;27;46944;-17
2022/04/21 02:11:08;;;;;;;1.00;1.00;;;18.00;30.90;;;;;;5147801;27;48027;-17
2022/04/21 02:13:35;;;;;;;0.90;0.90;;;18.00;31.00;;;;;;5147997;27;46903;-19
2022/04/21 02:16:02;;;;;;;1.48;1.30;;;18.00;30.90;;;;;;5147906;27;46825;-17
2022/04/21 02:18:29;;;;;;;1.17;1.17;;;18.00;31.00;;;;;;5148128;27;46832;-19
2022/04/21 02:20:56;;;;;;;1.33;0.90;;;17.90;30.90;;;;;;5147410;27;47066;-17
2022/04/21 02:23:23;;;;;;;1.30;1.23;;;18.00;31.00;;;;;;5147771;27;47433;-17
2022/04/21 02:25:50;;;;;;;1.30;1.20;;;17.90;31.60;;;;;;5147532;27;46890;-17
2022/04/21 02:28:18;;;;;;;1.00;1.00;;;17.90;30.90;;;;;;5147895;27;47272;-17
2022/04/21 02:30:45;;;;;;;1.10;1.00;;;17.90;31.00;;;;;;5147130;27;49064;-18
2022/04/21 02:33:12;;;;;;;1.00;1.00;;;17.90;31.70;;;;;;5147395;27;46823;-19
2022/04/21 02:35:38;;;;;;;1.30;1.10;;;17.90;31.10;;;;;;5147532;27;46944;-17
2022/04/21 02:38:05;;;;;;;1.10;1.10;;;17.90;31.10;;;;;;5147847;27;47307;-17
2022/04/21 02:40:32;;;;;;;1.00;0.95;;;17.80;31.10;;;;;;5147301;27;48097;-19
2022/04/21 02:42:59;;;;;;;1.13;1.10;;;17.80;31.10;;;;;;5147281;27;47377;-19
2022/04/21 02:45:27;;;;;;;1.52;1.10;;;17.80;31.20;;;;;;5147536;27;46816;-16
2022/04/21 02:47:54;;;;;;;1.10;1.10;;;17.70;31.20;;;;;;5147362;27;46964;-17
2022/04/21 02:50:21;;;;;;;1.33;1.20;;;17.80;31.30;;;;;;5147328;27;47871;-16
2022/04/21 02:52:48;;;;;;;1.27;1.17;;;17.70;31.20;;;;;;5147220;27;47112;-16
2022/04/21 02:57:59;;;;;;;1.23;1.13;;;17.70;31.20;;;;;;5148420;27;46930;-15
2022/04/21 03:00:27;;;;;;;1.20;1.10;;;17.70;32.00;;;;;;5150735;27;48956;-17
2022/04/21 03:02:56;;;;;;;1.30;1.20;;;17.60;31.30;;;;;;5150744;27;47047;-17
2022/04/21 03:05:22;;;;;;;1.13;1.10;;;17.60;31.40;;;;;;5150786;27;46866;-15
2022/04/21 03:07:49;;;;;;;1.20;1.10;;;17.60;31.40;;;;;;5150995;27;47247;-18
2022/04/21 03:10:16;;;;;;;1.08;1.08;;;17.60;31.50;;;;;;5150592;27;47177;-17
2022/04/21 03:12:42;;;;;;;1.30;1.20;;;17.60;31.50;;;;;;5150527;27;46838;-18
2022/04/21 03:15:11;;;;;;;1.30;1.20;;;17.50;31.50;;;;;;5150944;27;46923;-17
2022/04/21 03:17:39;;;;;;;1.10;1.00;;;17.50;31.50;;;;;;5151050;27;46808;-16
2022/04/21 03:20:06;;;;;;;1.33;1.23;;;17.50;31.50;;;;;;5150796;27;48236;-16
2022/04/21 03:25:17;;;;;;;1.27;1.17;;;17.40;31.50;;;;;;5147786;27;46934;-17
2022/04/21 03:27:46;;;;;;;1.02;1.00;;;17.50;31.60;;;;;;5150771;27;47306;-16
2022/04/21 03:30:13;;;;;;;1.40;1.15;;;17.40;31.60;;;;;;5150535;27;47935;-17
2022/04/21 03:32:42;;;;;;;1.00;1.00;;;17.40;31.70;;;;;;5150157;27;47443;-17
2022/04/21 03:35:09;;;;;;;2.03;1.23;;;17.30;31.60;;;;;;5150288;27;46822;-15
2022/04/21 03:37:36;;;;;;;1.25;1.25;;;17.40;31.70;;;;;;5150598;27;48173;-18
2022/04/21 03:40:03;;;;;;;1.58;1.25;;;17.30;31.80;;;;;;5150391;27;46824;-17
2022/04/21 03:42:31;;;;;;;1.63;1.33;;;17.30;31.80;;;;;;5149727;27;46730;-17
2022/04/21 03:44:58;;;;;;;1.67;1.20;;;17.30;31.80;;;;;;5150401;27;46867;-17
2022/04/21 03:47:25;;;;;;;1.40;1.30;;;17.20;31.80;;;;;;5150177;27;46841;-16
2022/04/21 03:49:53;;;;;;;1.15;1.10;;;17.20;31.70;;;;;;5150221;27;47065;-15
2022/04/21 03:52:19;;;;;;;1.67;1.27;;;17.20;31.80;;;;;;5149997;27;46917;-15
2022/04/21 03:54:46;;;;;;;2.13;1.23;;;17.20;31.90;;;;;;5150466;27;46808;-16
2022/04/21 03:57:13;;;;;;;1.10;1.10;;;17.20;31.80;;;;;;5150246;27;46810;-18
2022/04/21 03:59:39;;;;;;;1.00;1.00;;;17.10;31.90;;;;;;5149671;27;48116;-17
2022/04/21 04:02:06;;;;;;;1.60;1.20;;;17.10;31.80;;;;;;5150036;27;47255;-15
2022/04/21 04:04:33;;;;;;;1.40;1.30;;;17.10;31.90;;;;;;5149190;27;46873;-17
2022/04/21 04:12:31;;;;;;;1.35;1.25;;;17.00;32.00;;;;;;5149615;27;46890;-17
2022/04/21 04:14:57;;;;;;;1.02;1.02;;;17.00;32.10;;;;;;5149813;27;46811;-16
2022/04/21 04:17:24;;;;;;;1.40;1.30;;;17.00;32.10;;;;;;5149865;27;46769;-16
2022/04/21 04:19:51;;;;;;;1.67;1.33;;;17.00;32.10;;;;;;5149639;27;48193;-18
2022/04/21 04:22:19;;;;;;;1.75;1.45;;;16.90;32.20;;;;;;5149346;27;46933;-17
2022/04/21 04:24:46;;;;;;;1.50;1.20;;;16.90;32.20;;;;;;5149787;27;46736;-18
2022/04/21 04:27:12;;;;;;;1.30;1.20;;;16.90;32.20;;;;;;5149712;27;46804;-17
2022/04/21 04:29:39;;;;;;;1.30;1.20;;;16.90;32.20;;;;;;5149317;27;46905;-16
2022/04/21 04:32:07;;;;;;;1.10;1.00;;;16.90;32.20;;;;;;5149331;27;47309;-16
2022/04/21 04:34:33;;;;;;;1.40;1.30;;;16.80;32.20;;;;;;5149625;27;46896;-16
2022/04/21 04:37:00;;;;;;;1.42;1.30;;;16.80;32.30;;;;;;5149621;27;47075;-18
2022/04/21 04:39:28;;;;;;;1.30;1.20;;;16.80;32.30;;;;;;5149082;27;49234;-18
2022/04/21 04:44:39;;;;;;;1.17;1.17;;;16.70;32.40;;;;;;5146641;27;46912;-16
2022/04/21 04:47:05;;;;;;;1.80;1.30;;;16.70;32.40;;;;;;5148954;27;46839;-16
2022/04/21 04:49:31;;;;;;;1.48;1.20;;;16.70;32.40;;;;;;5149255;27;48095;-17
2022/04/21 04:51:58;;;;;;;1.70;1.60;;;16.70;32.50;;;;;;5149048;27;47680;-17
2022/04/21 04:54:27;;;;;;;1.40;1.30;;;16.70;32.50;;;;;;5149205;27;47045;-18
2022/04/21 04:56:55;;;;;;;1.27;1.17;;;16.70;32.50;;;;;;5148994;27;47298;-16
2022/04/21 04:59:22;;;;;;;1.80;1.45;;;16.70;32.50;;;;;;5148843;27;49071;-16
2022/04/21 05:01:48;;;;;;;1.83;1.45;;;16.70;32.50;;;;;;5148746;27;47038;-18
2022/04/21 05:04:16;;;;;;;1.40;1.30;;;16.60;32.40;;;;;;5149212;27;46812;-16
2022/04/21 05:06:43;;;;;;;2.10;1.45;;;16.60;32.50;;;;;;5148764;27;47282;-17
2022/04/21 05:09:10;;;;;;;1.85;1.15;;;16.60;32.50;;;;;;5148812;27;49026;-19
2022/04/21 05:11:37;;;;;;;1.77;1.45;;;16.60;32.70;;;;;;5148829;27;47000;-18
2022/04/21 05:14:07;;;;;;;1.83;1.40;;;16.60;32.70;;;;;;5148632;27;46890;-17
2022/04/21 05:16:33;;;;;;;1.65;1.50;;;16.50;32.60;;;;;;5147494;27;46881;-16
2022/04/21 05:19:00;;;;;;;1.50;1.40;;;16.50;32.60;;;;;;5148440;27;48111;-16
2022/04/21 05:21:27;;;;;;;1.63;1.52;;;16.50;32.60;;;;;;5148251;27;46925;-17
2022/04/21 05:23:57;;;;;;;1.63;1.30;;;16.50;32.70;;;;;;5148520;27;46871;-17
2022/04/21 05:26:24;;;;;;;1.58;1.40;;;16.50;32.80;;;;;;5148512;27;46918;-16
2022/04/21 05:28:51;;;;;;;2.10;1.50;;;16.50;32.70;;;;;;5148464;27;47816;-18
2022/04/21 05:31:19;;;;;;;2.08;1.77;;;16.50;32.80;;;;;;5148130;27;46866;-18
2022/04/21 05:33:47;;;;;;;1.70;1.60;;;16.40;32.70;;;;;;5148627;27;46917;-17
2022/04/21 05:36:14;;;;;;;1.45;1.35;;;16.50;32.80;;;;;;5148634;27;46845;-16
2022/04/21 05:38:42;;;;;;;1.60;1.50;;;16.40;32.70;;;;;;5148576;27;48236;-17
2022/04/21 05:41:09;;;;;;;1.33;1.23;;;16.40;32.70;;;;;;5148071;27;46881;-18
2022/04/21 05:43:40;;;;;;;1.50;1.40;;;16.40;32.80;;;;;;5148221;27;47120;-16
2022/04/21 05:46:07;;;;;;;2.95;1.35;;;16.40;32.70;;;;;;5148325;27;47327;-18
2022/04/21 05:48:36;;;;;;;1.40;1.30;;;16.40;32.90;;;;;;5148224;27;49027;-18
2022/04/21 05:51:03;;;;;;;1.85;1.45;;;16.40;32.70;;;;;;5147887;27;47295;-18
2022/04/21 05:53:31;;;;;;;1.98;1.45;;;16.40;32.70;;;;;;5148183;27;46977;-16
2022/04/21 05:55:58;;;;;;;1.88;1.38;;;16.40;32.80;;;;;;5148018;27;46979;-16
2022/04/21 05:58:26;;;;;;;1.70;1.60;;;16.40;32.80;;;;;;5147992;27;46868;-18
2022/04/21 06:00:52;;;;;;;1.67;1.50;;;16.40;32.90;;;;;;5147990;27;46953;-18
2022/04/21 06:03:21;;;;;;;1.70;1.45;;;16.40;32.90;;;;;;5148185;27;46853;-19
2022/04/21 06:05:49;;;;;;;1.58;1.48;;;16.30;32.90;;;;;;5147846;27;46855;-18
2022/04/21 06:08:16;;;;;;;1.67;1.38;;;16.40;33.00;;;;;;5147875;27;48806;-16
2022/04/21 06:10:42;;;;;;;1.50;1.40;;;16.40;32.90;;;;;;5148003;27;46910;-19
2022/04/21 06:13:09;;;;;;;1.63;1.52;;;16.40;32.90;;;;;;5147669;27;46927;-16
2022/04/21 06:15:36;;;;;;;1.75;1.20;;;16.30;33.00;;;;;;5148061;27;46981;-16
2022/04/21 06:18:02;;;;;;;1.30;1.20;;;16.30;32.90;;;;;;5147807;27;47957;-18
2022/04/21 06:20:29;;;;;;;1.50;1.40;;;16.30;33.00;;;;;;5147902;27;46956;-18
2022/04/21 06:22:58;;;;;;;1.70;1.60;;;16.30;33.00;;;;;;5147871;27;46968;-16
2022/04/21 06:25:25;;;;;;;1.42;1.30;;;16.30;33.00;;;;;;5147651;27;46902;-17
2022/04/21 06:27:51;;;;;;;1.92;1.40;;;16.30;33.00;;;;;;5147279;27;48814;-17
2022/04/21 06:30:18;;;;;;;1.30;1.20;;;16.30;33.00;;;;;;5147685;27;46942;-17
2022/04/21 06:32:45;;;;;;;1.50;1.40;;;16.30;33.00;;;;;;5147435;27;46898;-18
2022/04/21 06:35:12;;;;;;;1.67;1.58;;;16.30;33.00;;;;;;5148018;27;47343;-17
2022/04/21 06:37:39;;;;;;;1.60;1.50;;;16.30;33.00;;;;;;5147682;27;47004;-17
2022/04/21 06:40:08;;;;;;;1.50;1.33;;;16.30;32.90;;;;;;5147355;27;46942;-16
2022/04/21 06:42:35;;;;;;;2.58;1.60;;;16.40;33.10;;;;;;5147256;27;46856;-18
2022/04/21 06:48:04;;;;;;;2.15;1.50;;;16.40;33.00;;;;;;5144494;27;47574;-17
2022/04/21 06:50:35;;;;;;;1.60;1.45;;;16.40;33.10;;;;;;5147548;27;47043;-16
2022/04/21 06:53:01;;;;;;;3.40;1.50;;;16.40;33.00;;;;;;5147615;27;46818;-18
2022/04/21 06:55:30;;;;;;;3.30;1.50;;;16.40;33.00;;;;;;5147375;27;47102;-16
2022/04/21 06:57:56;;;;;;;1.95;1.40;;;16.50;33.00;;;;;;5147132;27;48779;-16
2022/04/21 07:00:24;;;;;;;2.20;1.40;;;16.50;33.00;;;;;;5147063;27;46882;-16
2022/04/21 07:02:51;;;;;;;1.67;1.50;;;16.50;33.00;;;;;;5147109;27;46770;-16
2022/04/21 07:05:18;;;;;;;1.17;1.10;;;16.50;33.00;;;;;;5147460;27;46852;-19
2022/04/21 07:07:45;;;;;;;1.55;1.40;;;16.50;32.90;;;;;;5147117;27;48056;-17
2022/04/21 07:10:12;;;;;;;1.70;1.45;;;16.50;32.90;;;;;;5147196;27;47446;-16
2022/04/21 07:12:40;;;;;;;1.80;1.38;;;16.50;32.90;;;;;;5147229;27;47006;-18
2022/04/21 07:15:07;;;;;;;1.75;1.30;;;16.50;32.90;;;;;;5147331;27;46880;-16
2022/04/21 07:17:34;;;;;;;2.13;1.65;;;16.50;32.90;;;;;;5146824;27;48744;-16
2022/04/21 07:20:02;;;;;;;1.30;1.20;;;16.60;33.00;;;;;;5147089;27;46977;-16
2022/04/21 07:22:29;;;;;;;1.40;1.30;;;16.60;32.90;;;;;;5146687;27;46875;-18
2022/04/21 07:24:56;;;;;;;1.20;1.10;;;16.60;33.00;;;;;;5147153;27;46885;-17
2022/04/21 07:27:23;;;;;;;2.10;1.38;;;16.60;33.00;;;;;;5146143;27;46869;-16
2022/04/21 07:29:51;;;;;;;2.22;1.73;;;16.60;32.90;;;;;;5146352;27;47083;-17
2022/04/21 07:32:18;;;;;;;1.98;1.85;;;16.60;33.00;;;;;;5146508;27;46892;-17
2022/04/21 07:34:45;;;;;;;2.33;1.30;;;16.60;33.00;;;;;;5146976;27;47290;-17
2022/04/21 07:37:12;;;;;;;1.85;1.52;;;16.70;33.00;;;;;;5146609;27;46841;-16
2022/04/21 07:39:40;;;;;;;4.25;1.60;;;16.60;33.00;;;;;;5146998;27;46957;-17
2022/04/21 07:42:07;;;;;;;2.38;1.45;;;16.70;33.10;;;;;;5149871;27;46893;-18
2022/04/21 07:44:34;;;;;;;1.77;1.65;;;16.70;33.10;;;;;;5150476;27;47024;-16
2022/04/21 07:47:03;;;;;;;1.50;1.40;;;16.70;33.00;;;;;;5150125;27;48125;-17
2022/04/21 07:49:48;;;;;;;1.67;1.55;;;16.70;33.10;;;;;;5149933;27;47046;-16
2022/04/21 07:55:09;;;;;;;1.50;1.40;;;16.70;33.00;;;;;;5117337;27;46937;-18
2022/04/21 07:57:36;;;;;;;1.58;1.48;;;16.80;33.10;;;;;;5149700;27;49053;-17
2022/04/21 08:00:03;;;;;;;1.83;1.63;;;16.80;33.10;;;;;;5149796;27;46741;-16
2022/04/21 08:02:31;;;;;;;1.92;1.70;;;16.80;33.10;;;;;;5150043;27;46954;-17
2022/04/21 08:04:58;;;;;;;2.13;1.50;;;16.80;33.10;;;;;;5149548;27;47110;-17
2022/04/21 08:07:25;;;;;;;2.85;1.70;;;16.80;33.20;;;;;;5148576;27;48038;-18
2022/04/21 08:09:52;;;;;;;1.50;1.40;;;16.80;33.10;;;;;;5149707;27;46855;-17
2022/04/21 08:12:19;;;;;;;1.85;1.50;;;16.80;33.20;;;;;;5149694;27;46826;-16
2022/04/21 08:14:46;;;;;;;1.77;1.40;;;16.80;33.20;;;;;;5149649;27;46825;-16
2022/04/21 08:17:12;;;;;;;2.05;1.42;;;16.80;33.20;;;;;;5149334;27;46910;-18
2022/04/21 08:19:40;;;;;;;1.60;1.50;;;16.90;33.30;;;;;;5149496;27;46877;-17
2022/04/21 08:22:07;;;;;;;2.25;1.40;;;16.90;33.20;;;;;;5149281;27;46887;-18
2022/04/21 08:32:58;;;;;;;2.10;1.40;;;17.00;33.20;;;;;;5142795;27;46993;-18
2022/04/21 08:35:27;;;;;;;2.47;1.40;;;17.00;33.10;;;;;;5156982;27;46994;-17
2022/04/21 08:37:54;;;;;;;1.65;1.55;;;17.00;33.10;;;;;;5166487;27;46925;-16
2022/04/21 08:40:22;;;;;;;1.42;1.30;;;17.10;33.20;;;;;;5170401;27;46896;-17
2022/04/21 08:42:52;;;;;;;2.30;1.48;;;17.10;33.30;;;;;;5170236;27;46955;-18
2022/04/21 08:45:19;;;;;;;2.97;1.60;;;17.10;33.20;;;;;;5170132;27;47257;-19
2022/04/21 08:47:46;;;;;;;1.83;1.48;;;17.10;33.20;;;;;;5170025;27;47081;-17
2022/04/21 08:50:14;;;;;;;2.10;1.45;;;17.20;33.20;;;;;;5169840;27;46807;-18
2022/04/21 08:52:42;;;;;;;2.42;1.40;;;17.20;33.30;;;;;;5170170;27;46894;-17
2022/04/21 08:55:10;;;;;;;1.20;1.10;;;17.20;33.20;;;;;;5170274;27;47217;-17
2022/04/21 08:57:36;;;;;;;1.40;1.30;;;17.20;33.20;;;;;;5169683;27;48049;-18
2022/04/21 09:00:04;;;;;;;1.50;1.40;;;17.20;33.10;;;;;;5165036;27;46778;-16
2022/04/21 09:02:39;;;;;;;1.35;1.20;;;17.30;33.20;;;;;;5160627;27;47482;-18
2022/04/21 09:05:06;;;;;;;1.40;1.30;;;17.30;33.10;;;;;;5154408;27;47123;-17
2022/04/21 09:07:33;;;;;;;1.30;1.23;;;17.30;33.00;;;;;;5166739;27;47081;-16
2022/04/21 09:10:06;;;;;;;1.33;1.20;;;17.40;33.00;;;;;;5169242;27;47505;-17
2022/04/21 09:12:32;;;;;;;1.48;1.30;;;17.40;33.00;;;;;;5169032;27;47210;-17
2022/04/21 09:15:03;;;;;;;1.60;1.50;;;17.40;33.00;;;;;;5170140;27;46901;-17
2022/04/21 09:17:30;;;;;;;1.48;1.38;;;17.40;33.00;;;;;;5169491;27;46896;-17
2022/04/21 09:19:57;;;;;;;1.70;1.20;;;17.50;33.10;;;;;;5169736;27;46936;-18
2022/04/21 09:22:24;;;;;;;1.52;1.42;;;17.50;33.10;;;;;;5169676;27;46885;-18
2022/04/21 09:24:52;;;;;;;1.80;1.70;;;17.50;33.10;;;;;;5170002;27;46948;-17
2022/04/21 09:27:20;;;;;;;1.45;1.35;;;17.50;33.20;;;;;;5169385;27;48112;-17
2022/04/21 09:29:47;;;;;;;1.33;1.23;;;17.50;33.10;;;;;;5169531;27;46986;-17
2022/04/21 09:32:16;;;;;;;1.85;1.60;;;17.50;33.10;;;;;;5169482;27;46861;-16
2022/04/21 09:34:48;;;;;;;1.70;1.38;;;17.60;33.20;;;;;;5170056;27;46934;-18
2022/04/21 09:37:18;;;;;;;1.27;1.20;;;17.60;33.20;;;;;;5169077;27;47028;-16
2022/04/21 09:39:49;;;;;;;1.75;1.40;;;17.70;33.20;;;;;;5169294;27;46923;-18
2022/04/21 09:42:24;;;;;;;1.52;1.40;;;17.70;33.20;;;;;;5168608;27;47036;-17
2022/04/21 09:47:37;;;;;;;1.40;1.30;;;17.80;33.10;;;;;;5132421;27;47114;-16
2022/04/21 09:50:14;;;;;;;1.40;1.30;;;17.80;33.10;;;;;;5150388;27;46953;-18
2022/04/21 09:52:47;;;;;;;1.35;1.25;;;17.80;33.10;;;;;;5168903;27;46948;-17
2022/04/21 09:55:24;;;;;;;1.75;1.45;;;17.90;33.20;;;;;;5168667;27;46933;-18
2022/04/21 09:57:53;;;;;;;2.60;1.50;;;17.90;33.10;;;;;;5168989;27;49069;-17
2022/04/21 10:00:21;;;;;;;3.22;1.70;;;17.90;33.00;;;;;;5168967;27;46903;-18
2022/04/21 10:02:49;;;;;;;1.58;1.48;;;18.00;33.50;;;;;;5168444;27;46913;-16
2022/04/21 10:05:16;;;;;;;1.42;1.25;;;18.00;33.10;;;;;;5168992;27;46924;-16
2022/04/21 10:07:44;;;;;;;1.35;1.25;;;18.00;33.20;;;;;;5168911;27;46810;-16
2022/04/21 10:10:11;;;;;;;1.50;1.40;;;18.00;33.10;;;;;;5167538;27;47010;-17
2022/04/21 10:12:38;;;;;;;2.40;1.60;;;18.10;33.00;;;;;;5168947;27;46926;-16
2022/04/21 10:15:08;;;;;;;1.45;1.35;;;18.10;33.00;;;;;;5168906;27;47163;-17
2022/04/21 10:17:34;;;;;;;1.58;1.40;;;18.20;33.30;;;;;;5168606;27;48125;-16
2022/04/21 10:20:01;;;;;;;3.00;1.45;;;18.20;33.20;;;;;;5168732;27;46890;-17
2022/04/21 10:22:29;;;;;;;1.50;1.38;;;18.20;33.00;;;;;;5168432;27;46893;-17
2022/04/21 10:24:56;;;;;;;1.50;1.40;;;18.30;33.10;;;;;;5168611;27;46823;-17
2022/04/21 10:27:36;;;;;;;1.58;1.42;;;18.30;33.00;;;;;;5168391;27;48883;-17
2022/04/21 10:30:11;;;;;;;1.60;1.50;;;18.30;32.90;;;;;;5168566;27;46979;-16
2022/04/21 10:32:51;;;;;;;1.60;1.50;;;18.40;32.90;;;;;;5167990;27;47032;-19
2022/04/21 10:35:20;;;;;;;1.52;1.42;;;18.40;32.80;;;;;;5167300;27;46940;-18
2022/04/21 10:37:47;;;;;;;2.78;1.55;;;18.40;32.80;;;;;;5165838;27;48142;-19
2022/04/21 10:40:15;;;;;;;1.60;1.50;;;18.50;32.90;;;;;;5168175;27;46964;-19
2022/04/21 10:42:59;;;;;;;1.90;1.58;;;18.60;32.80;;;;;;5166598;27;47142;-18
2022/04/21 10:45:28;;;;;;;1.60;1.50;;;18.60;33.00;;;;;;5167998;27;46956;-18
2022/04/21 10:48:05;;;;;;;2.08;1.60;;;18.60;32.80;;;;;;5168004;27;47858;-17
2022/04/21 10:50:32;;;;;;;1.60;1.50;;;18.70;32.80;;;;;;5168367;27;46948;-16
2022/04/21 10:58:52;;;;;;;1.63;1.45;;;18.90;32.70;;;;;;5165354;27;46932;-17
2022/04/21 11:01:27;;;;;;;2.47;1.60;;;18.90;32.50;;;;;;5168231;27;46890;-17
2022/04/21 11:04:14;;;;;;;1.60;1.50;;;19.00;32.50;;;;;;5168278;27;46912;-17
2022/04/21 11:06:41;;;;;;;1.40;1.30;;;19.10;32.40;;;;;;5167976;27;46887;-16
2022/04/21 11:09:09;;;;;;;2.35;1.92;;;19.10;32.20;;;;;;5167865;27;47980;-16
2022/04/21 11:11:45;;;;;;;2.20;1.80;;;19.20;32.30;;;;;;5167603;27;47461;-17
2022/04/21 11:14:12;;;;;;;1.77;1.67;;;19.30;32.40;;;;;;5168183;27;46897;-16
2022/04/21 11:16:49;;;;;;;1.50;1.40;;;19.30;32.30;;;;;;5171584;27;47017;-17
2022/04/21 11:19:35;;;;;;;1.80;1.60;;;19.40;32.20;;;;;;5171762;27;48109;-16
2022/04/21 11:22:03;;;;;;;1.70;1.42;;;19.50;32.20;;;;;;5171480;27;46966;-18
2022/04/21 11:25:01;;;;;;;1.85;1.50;;;19.60;32.20;;;;;;5171777;27;46765;-17
2022/04/21 11:27:27;;;;;;;1.67;1.58;;;19.60;32.00;;;;;;5171358;27;46766;-16
2022/04/21 11:29:56;;;;;;;3.42;1.35;;;19.70;31.90;;;;;;5171412;27;48900;-19
2022/04/21 11:32:24;;;;;;;1.70;1.60;;;19.80;31.80;;;;;;5170952;27;46912;-17
2022/04/21 11:34:58;;;;;;;1.77;1.52;;;19.80;31.80;;;;;;5171205;27;46833;-18
2022/04/21 11:37:24;;;;;;;1.63;1.52;;;19.90;31.70;;;;;;5171506;27;46771;-18
2022/04/21 11:39:51;;;;;;;1.52;1.42;;;20.00;31.60;;;;;;5170808;27;49056;-17
2022/04/21 11:42:26;;;;;;;1.70;1.60;;;20.10;31.60;;;;;;5171237;27;46975;-17
2022/04/21 11:44:52;;;;;;;1.52;1.42;;;20.10;31.40;;;;;;5171198;27;46767;-17
2022/04/21 11:47:20;;;;;;;1.70;1.60;;;20.20;31.60;;;;;;5171314;27;47060;-17
2022/04/21 11:49:59;;;;;;;1.80;1.60;;;20.20;31.30;;;;;;5170700;27;47011;-19
2022/04/21 11:52:28;;;;;;;1.60;1.40;;;20.30;31.40;;;;;;5171181;27;47458;-18
2022/04/21 11:55:01;;;;;;;2.13;1.80;;;20.40;31.30;;;;;;5171470;27;46922;-18
2022/04/21 11:57:39;;;;;;;1.88;1.58;;;20.40;31.20;;;;;;5171321;27;46791;-17
2022/04/21 12:00:07;;;;;;;2.80;1.65;;;20.50;31.20;;;;;;5170739;27;48798;-17
2022/04/21 12:08:05;;;;;;;2.90;2.08;;;20.70;31.90;;;;;;5168253;27;46909;-18
2022/04/21 12:10:32;;;;;;;3.53;1.77;;;20.80;31.30;;;;;;5170403;27;47900;-18
2022/04/21 12:12:59;;;;;;;2.33;1.80;;;20.90;31.30;;;;;;5170721;27;46777;-18
2022/04/21 12:15:28;;;;;;;3.97;2.00;;;20.90;31.20;;;;;;5170763;27;46902;-18
2022/04/21 12:17:59;;;;;;;1.92;1.80;;;21.00;31.10;;;;;;5170912;27;47082;-18
2022/04/21 12:20:27;;;;;;;2.05;1.88;;;21.00;30.80;;;;;;5170167;27;49038;-19
2022/04/21 12:22:54;;;;;;;2.88;2.30;;;21.10;30.70;;;;;;5166828;27;46912;-19
2022/04/21 12:25:28;;;;;;;4.10;1.83;;;21.10;30.60;;;;;;5160840;27;46851;-17
2022/04/21 12:27:55;;;;;;;2.10;2.00;;;21.20;30.60;;;;;;5170557;27;47054;-17
2022/04/21 12:30:22;;;;;;;2.00;1.90;;;21.20;30.50;;;;;;5170001;27;48755;-18
2022/04/21 12:32:49;;;;;;;2.35;1.90;;;21.20;30.40;;;;;;5164933;27;47120;-18
2022/04/21 12:35:18;;;;;;;2.60;1.90;;;21.30;30.50;;;;;;5163248;27;47063;-18
2022/04/21 12:38:50;;;;;;;2.20;1.70;;;21.30;30.30;;;;;;5168550;27;47022;-19
2022/04/21 12:40:40;;;;;;;3.10;2.42;;;21.40;30.30;;;;;;5169678;27;47598;-18
2022/04/21 12:43:07;;;;;;;2.67;2.35;;;21.50;30.30;;;;;;5170041;27;46954;-17
2022/04/21 12:45:34;;;;;;;2.03;1.83;;;21.50;30.10;;;;;;5170203;27;46940;-18
2022/04/21 12:48:02;;;;;;;2.97;2.13;;;21.50;30.10;;;;;;5170395;27;46999;-19
2022/04/21 12:50:30;;;;;;;1.92;1.77;;;21.60;30.00;;;;;;5170213;27;47948;-19
2022/04/21 12:52:59;;;;;;;2.90;1.85;;;21.60;30.00;;;;;;5170498;27;46901;-18
2022/04/21 12:55:26;;;;;;;2.28;2.00;;;21.70;29.90;;;;;;5170173;27;46833;-18
2022/04/21 12:58:00;;;;;;;2.20;1.80;;;21.70;30.00;;;;;;5170042;27;46909;-18
2022/04/21 13:00:27;;;;;;;2.22;1.77;;;21.70;30.00;;;;;;5170184;27;48101;-18
2022/04/21 13:02:53;;;;;;;2.25;2.00;;;21.80;29.90;;;;;;5169763;27;47435;-18
2022/04/21 13:05:20;;;;;;;1.70;1.60;;;21.80;29.90;;;;;;5168335;27;46904;-19
2022/04/21 13:07:47;;;;;;;1.95;1.70;;;21.80;29.90;;;;;;5168776;27;46934;-19
2022/04/21 13:10:16;;;;;;;1.83;1.70;;;21.90;29.90;;;;;;5169164;27;46803;-18
2022/04/21 13:12:43;;;;;;;2.00;1.88;;;21.90;29.90;;;;;;5166001;27;46967;-18
2022/04/21 13:15:10;;;;;;;2.00;1.80;;;22.00;29.90;;;;;;5168613;27;46824;-17
2022/04/21 13:17:37;;;;;;;3.40;1.63;;;22.00;29.80;;;;;;5168333;27;47003;-19
2022/04/21 13:20:05;;;;;;;2.05;1.85;;;22.10;29.80;;;;;;5168706;27;48817;-17
2022/04/21 13:22:31;;;;;;;2.17;1.70;;;22.10;29.80;;;;;;5168477;27;46905;-18
2022/04/21 13:24:57;;;;;;;4.05;1.83;;;22.10;29.70;;;;;;5168496;27;47107;-17
2022/04/21 13:27:28;;;;;;;2.95;1.90;;;22.20;29.70;;;;;;5165715;27;46871;-18
2022/04/21 13:29:55;;;;;;;3.50;1.95;;;22.20;29.70;;;;;;5168403;27;47917;-19
2022/04/21 13:35:07;;;;;;;1.80;1.70;;;22.30;30.00;;;;;;5163305;27;46989;-17
2022/04/21 13:37:34;;;;;;;2.53;2.15;;;22.30;29.50;;;;;;5167338;27;47326;-19
2022/04/21 13:40:00;;;;;;;2.10;1.80;;;22.40;29.60;;;;;;5168080;27;48771;-18
2022/04/21 13:42:28;;;;;;;2.35;1.90;;;22.40;29.50;;;;;;5168266;27;47457;-17
2022/04/21 13:44:55;;;;;;;3.25;2.08;;;22.50;29.50;;;;;;5168112;27;46999;-18